sensor_id;sensor_type;location;lat;lon;timestamp;P1;P2;P0
34240;PMS7003;20503;50.200;19.508;2024-03-02T00:00:17;39;29;18
34240;PMS7003;20503;50.200;19.508;2024-03-02T00:01:28;39;32;20
34240;PMS7003;20503;50.200;19.508;2024-03-02T00:02:29;38;30;19
34240;PMS7003;20503;50.200;19.508;2024-03-02T00:03:30;41;32;19
34240;PMS7003;20503;50.200;19.508;2024-03-02T00:04:32;41;32;19
34240;PMS7003;20503;50.200;19.508;2024-03-02T00:05:33;41;32;20
34240;PMS7003;20503;50.200;19.508;2024-03-02T00:06:34;41;32;20
34240;PMS7003;20503;50.200;19.508;2024-03-02T00:07:35;40;31;20
34240;PMS7003;20503;50.200;19.508;2024-03-02T00:08:37;37;29;19
34240;PMS7003;20503;50.200;19.508;2024-03-02T00:09:39;39;32;20
34240;PMS7003;20503;50.200;19.508;2024-03-02T00:10:40;40;30;19
34240;PMS7003;20503;50.200;19.508;2024-03-02T00:11:42;40;30;19
34240;PMS7003;20503;50.200;19.508;2024-03-02T00:12:45;40;32;19
34240;PMS7003;20503;50.200;19.508;2024-03-02T00:13:49;40;32;19
34240;PMS7003;20503;50.200;19.508;2024-03-02T00:14:54;39;32;19
34240;PMS7003;20503;50.200;19.508;2024-03-02T00:15:59;36;29;19
34240;PMS7003;20503;50.200;19.508;2024-03-02T00:17:00;36;29;19
34240;PMS7003;20503;50.200;19.508;2024-03-02T00:18:02;39;31;18
34240;PMS7003;20503;50.200;19.508;2024-03-02T00:19:06;39;31;18
34240;PMS7003;20503;50.200;19.508;2024-03-02T00:20:09;39;31;19
34240;PMS7003;20503;50.200;19.508;2024-03-02T00:21:11;35;28;18
34240;PMS7003;20503;50.200;19.508;2024-03-02T00:22:18;35;28;18
34240;PMS7003;20503;50.200;19.508;2024-03-02T00:23:20;40;31;18
34240;PMS7003;20503;50.200;19.508;2024-03-02T00:26:48;40;32;18
34240;PMS7003;20503;50.200;19.508;2024-03-02T00:27:49;40;32;18
34240;PMS7003;20503;50.200;19.508;2024-03-02T00:28:50;38;30;18
34240;PMS7003;20503;50.200;19.508;2024-03-02T00:29:57;38;30;18
34240;PMS7003;20503;50.200;19.508;2024-03-02T00:30:59;32;28;18
34240;PMS7003;20503;50.200;19.508;2024-03-02T00:32:17;39;31;19
34240;PMS7003;20503;50.200;19.508;2024-03-02T00:33:19;40;31;20
34240;PMS7003;20503;50.200;19.508;2024-03-02T00:34:21;40;29;18
34240;PMS7003;20503;50.200;19.508;2024-03-02T00:35:24;40;29;18
34240;PMS7003;20503;50.200;19.508;2024-03-02T00:36:26;37;28;17
34240;PMS7003;20503;50.200;19.508;2024-03-02T00:37:46;36;29;17
34240;PMS7003;20503;50.200;19.508;2024-03-02T00:38:49;40;28;17
34240;PMS7003;20503;50.200;19.508;2024-03-02T00:39:51;40;28;17
34240;PMS7003;20503;50.200;19.508;2024-03-02T00:40:53;35;25;17
34240;PMS7003;20503;50.200;19.508;2024-03-02T00:42:15;37;27;17
34240;PMS7003;20503;50.200;19.508;2024-03-02T00:44:30;30;27;17
34240;PMS7003;20503;50.200;19.508;2024-03-02T00:45:39;30;27;17
34240;PMS7003;20503;50.200;19.508;2024-03-02T00:46:42;28;22;15
34240;PMS7003;20503;50.200;19.508;2024-03-02T00:47:45;28;22;15
34240;PMS7003;20503;50.200;19.508;2024-03-02T00:49:57;33;27;17
34240;PMS7003;20503;50.200;19.508;2024-03-02T00:50:58;32;27;17
34240;PMS7003;20503;50.200;19.508;2024-03-02T00:52:00;33;28;16
34240;PMS7003;20503;50.200;19.508;2024-03-02T00:53:01;33;28;17
34240;PMS7003;20503;50.200;19.508;2024-03-02T00:54:04;33;28;17
34240;PMS7003;20503;50.200;19.508;2024-03-02T00:55:08;32;25;17
34240;PMS7003;20503;50.200;19.508;2024-03-02T00:56:10;30;25;16
34240;PMS7003;20503;50.200;19.508;2024-03-02T00:57:13;33;23;16
34240;PMS7003;20503;50.200;19.508;2024-03-02T00:58:16;33;23;16
34240;PMS7003;20503;50.200;19.508;2024-03-02T00:59:17;29;24;16
34240;PMS7003;20503;50.200;19.508;2024-03-02T01:00:19;29;24;16
34240;PMS7003;20503;50.200;19.508;2024-03-02T01:01:39;30;22;14
34240;PMS7003;20503;50.200;19.508;2024-03-02T01:02:40;30;22;14
34240;PMS7003;20503;50.200;19.508;2024-03-02T01:03:58;36;27;17
34240;PMS7003;20503;50.200;19.508;2024-03-02T01:05:00;36;27;17
34240;PMS7003;20503;50.200;19.508;2024-03-02T01:06:01;36;25;17
34240;PMS7003;20503;50.200;19.508;2024-03-02T01:07:24;27;23;15
34240;PMS7003;20503;50.200;19.508;2024-03-02T01:08:34;35;28;16
34240;PMS7003;20503;50.200;19.508;2024-03-02T01:09:37;35;28;16
34240;PMS7003;20503;50.200;19.508;2024-03-02T01:10:39;33;25;16
34240;PMS7003;20503;50.200;19.508;2024-03-02T01:11:40;33;25;16
34240;PMS7003;20503;50.200;19.508;2024-03-02T01:12:42;29;23;15
34240;PMS7003;20503;50.200;19.508;2024-03-02T01:13:44;26;21;15
34240;PMS7003;20503;50.200;19.508;2024-03-02T01:14:46;27;26;15
34240;PMS7003;20503;50.200;19.508;2024-03-02T01:15:48;33;24;15
34240;PMS7003;20503;50.200;19.508;2024-03-02T01:16:49;30;22;14
34240;PMS7003;20503;50.200;19.508;2024-03-02T01:18:09;29;22;15
34240;PMS7003;20503;50.200;19.508;2024-03-02T01:19:10;28;23;16
34240;PMS7003;20503;50.200;19.508;2024-03-02T01:20:18;31;24;16
34240;PMS7003;20503;50.200;19.508;2024-03-02T01:21:19;33;25;14
34240;PMS7003;20503;50.200;19.508;2024-03-02T01:22:21;29;24;15
34240;PMS7003;20503;50.200;19.508;2024-03-02T01:23:26;34;24;14
34240;PMS7003;20503;50.200;19.508;2024-03-02T01:24:27;28;21;14
34240;PMS7003;20503;50.200;19.508;2024-03-02T01:25:28;24;21;14
34240;PMS7003;20503;50.200;19.508;2024-03-02T01:26:30;24;21;14
34240;PMS7003;20503;50.200;19.508;2024-03-02T01:27:32;26;21;14
34240;PMS7003;20503;50.200;19.508;2024-03-02T01:28:33;27;19;14
34240;PMS7003;20503;50.200;19.508;2024-03-02T01:29:34;27;23;14
34240;PMS7003;20503;50.200;19.508;2024-03-02T01:30:35;27;23;14
34240;PMS7003;20503;50.200;19.508;2024-03-02T01:31:37;27;23;14
34240;PMS7003;20503;50.200;19.508;2024-03-02T01:32:40;26;22;15
34240;PMS7003;20503;50.200;19.508;2024-03-02T01:33:53;25;19;14
34240;PMS7003;20503;50.200;19.508;2024-03-02T01:34:54;29;21;16
34240;PMS7003;20503;50.200;19.508;2024-03-02T01:35:56;25;21;14
34240;PMS7003;20503;50.200;19.508;2024-03-02T01:36:58;27;21;13
34240;PMS7003;20503;50.200;19.508;2024-03-02T01:37:59;24;20;13
34240;PMS7003;20503;50.200;19.508;2024-03-02T01:39:02;27;20;14
34240;PMS7003;20503;50.200;19.508;2024-03-02T01:40:33;27;22;14
34240;PMS7003;20503;50.200;19.508;2024-03-02T01:41:41;27;20;13
34240;PMS7003;20503;50.200;19.508;2024-03-02T01:42:43;27;20;13
34240;PMS7003;20503;50.200;19.508;2024-03-02T01:43:45;28;21;13
34240;PMS7003;20503;50.200;19.508;2024-03-02T01:44:46;28;21;13
34240;PMS7003;20503;50.200;19.508;2024-03-02T01:45:48;26;22;14
34240;PMS7003;20503;50.200;19.508;2024-03-02T01:46:49;25;20;14
34240;PMS7003;20503;50.200;19.508;2024-03-02T01:47:52;25;20;14
34240;PMS7003;20503;50.200;19.508;2024-03-02T01:48:53;25;21;14
34240;PMS7003;20503;50.200;19.508;2024-03-02T01:49:55;25;21;14
34240;PMS7003;20503;50.200;19.508;2024-03-02T01:50:56;26;20;13
34240;PMS7003;20503;50.200;19.508;2024-03-02T01:51:58;24;18;12
34240;PMS7003;20503;50.200;19.508;2024-03-02T01:53:00;24;18;12
34240;PMS7003;20503;50.200;19.508;2024-03-02T01:54:05;27;22;13
34240;PMS7003;20503;50.200;19.508;2024-03-02T01:55:07;28;21;13
34240;PMS7003;20503;50.200;19.508;2024-03-02T01:56:09;23;19;14
34240;PMS7003;20503;50.200;19.508;2024-03-02T01:57:13;24;18;13
34240;PMS7003;20503;50.200;19.508;2024-03-02T01:58:14;25;19;14
34240;PMS7003;20503;50.200;19.508;2024-03-02T01:59:16;25;20;13
34240;PMS7003;20503;50.200;19.508;2024-03-02T02:00:17;30;21;14
34240;PMS7003;20503;50.200;19.508;2024-03-02T02:01:21;30;21;14
34240;PMS7003;20503;50.200;19.508;2024-03-02T02:02:23;29;24;15
34240;PMS7003;20503;50.200;19.508;2024-03-02T02:03:24;29;24;15
34240;PMS7003;20503;50.200;19.508;2024-03-02T02:04:25;26;20;14
34240;PMS7003;20503;50.200;19.508;2024-03-02T02:05:37;28;22;15
34240;PMS7003;20503;50.200;19.508;2024-03-02T02:06:39;27;24;14
34240;PMS7003;20503;50.200;19.508;2024-03-02T02:07:43;27;24;14
34240;PMS7003;20503;50.200;19.508;2024-03-02T02:08:45;30;23;15
34240;PMS7003;20503;50.200;19.508;2024-03-02T02:09:48;28;21;14
34240;PMS7003;20503;50.200;19.508;2024-03-02T02:10:49;28;21;14
34240;PMS7003;20503;50.200;19.508;2024-03-02T02:11:51;25;20;14
34240;PMS7003;20503;50.200;19.508;2024-03-02T02:12:53;25;20;14
34240;PMS7003;20503;50.200;19.508;2024-03-02T02:13:55;28;22;14
34240;PMS7003;20503;50.200;19.508;2024-03-02T02:14:57;25;20;14
34240;PMS7003;20503;50.200;19.508;2024-03-02T02:17:09;28;21;14
34240;PMS7003;20503;50.200;19.508;2024-03-02T02:18:10;28;21;14
34240;PMS7003;20503;50.200;19.508;2024-03-02T02:19:12;24;20;13
34240;PMS7003;20503;50.200;19.508;2024-03-02T02:20:13;27;21;14
34240;PMS7003;20503;50.200;19.508;2024-03-02T02:21:15;24;20;14
34240;PMS7003;20503;50.200;19.508;2024-03-02T02:22:16;29;23;13
34240;PMS7003;20503;50.200;19.508;2024-03-02T02:23:17;29;23;13
34240;PMS7003;20503;50.200;19.508;2024-03-02T02:24:19;27;19;13
34240;PMS7003;20503;50.200;19.508;2024-03-02T02:25:20;29;20;13
34240;PMS7003;20503;50.200;19.508;2024-03-02T02:26:21;33;22;14
34240;PMS7003;20503;50.200;19.508;2024-03-02T02:27:23;26;19;13
34240;PMS7003;20503;50.200;19.508;2024-03-02T02:28:25;26;20;13
34240;PMS7003;20503;50.200;19.508;2024-03-02T02:29:28;26;20;13
34240;PMS7003;20503;50.200;19.508;2024-03-02T02:30:30;29;19;12
34240;PMS7003;20503;50.200;19.508;2024-03-02T02:32:41;25;20;14
34240;PMS7003;20503;50.200;19.508;2024-03-02T02:33:42;25;20;14
34240;PMS7003;20503;50.200;19.508;2024-03-02T02:34:44;25;22;14
34240;PMS7003;20503;50.200;19.508;2024-03-02T02:35:45;25;22;14
34240;PMS7003;20503;50.200;19.508;2024-03-02T02:36:47;24;20;13
34240;PMS7003;20503;50.200;19.508;2024-03-02T02:37:48;26;21;13
34240;PMS7003;20503;50.200;19.508;2024-03-02T02:38:51;24;18;13
34240;PMS7003;20503;50.200;19.508;2024-03-02T02:39:54;22;18;13
34240;PMS7003;20503;50.200;19.508;2024-03-02T02:40:55;22;18;13
34240;PMS7003;20503;50.200;19.508;2024-03-02T02:41:56;24;21;13
34240;PMS7003;20503;50.200;19.508;2024-03-02T02:42:59;24;21;13
34240;PMS7003;20503;50.200;19.508;2024-03-02T02:44:00;25;20;12
34240;PMS7003;20503;50.200;19.508;2024-03-02T02:45:20;25;19;13
34240;PMS7003;20503;50.200;19.508;2024-03-02T02:46:22;25;19;13
34240;PMS7003;20503;50.200;19.508;2024-03-02T02:47:50;24;19;13
34240;PMS7003;20503;50.200;19.508;2024-03-02T02:48:52;24;19;13
34240;PMS7003;20503;50.200;19.508;2024-03-02T02:49:55;23;18;12
34240;PMS7003;20503;50.200;19.508;2024-03-02T02:50:57;25;19;12
34240;PMS7003;20503;50.200;19.508;2024-03-02T02:51:59;25;19;12
34240;PMS7003;20503;50.200;19.508;2024-03-02T02:53:00;23;19;12
34240;PMS7003;20503;50.200;19.508;2024-03-02T02:54:02;23;19;12
34240;PMS7003;20503;50.200;19.508;2024-03-02T02:55:04;23;19;12
34240;PMS7003;20503;50.200;19.508;2024-03-02T02:56:21;26;19;13
34240;PMS7003;20503;50.200;19.508;2024-03-02T02:57:24;24;18;13
34240;PMS7003;20503;50.200;19.508;2024-03-02T02:58:25;24;18;13
34240;PMS7003;20503;50.200;19.508;2024-03-02T02:59:40;21;17;12
34240;PMS7003;20503;50.200;19.508;2024-03-02T03:00:41;24;18;12
34240;PMS7003;20503;50.200;19.508;2024-03-02T03:01:43;24;18;12
34240;PMS7003;20503;50.200;19.508;2024-03-02T03:03:08;22;18;12
34240;PMS7003;20503;50.200;19.508;2024-03-02T03:04:10;24;18;12
34240;PMS7003;20503;50.200;19.508;2024-03-02T03:05:12;25;19;13
34240;PMS7003;20503;50.200;19.508;2024-03-02T03:06:26;24;21;13
34240;PMS7003;20503;50.200;19.508;2024-03-02T03:07:27;26;19;12
34240;PMS7003;20503;50.200;19.508;2024-03-02T03:08:29;26;19;12
34240;PMS7003;20503;50.200;19.508;2024-03-02T03:09:30;27;20;14
34240;PMS7003;20503;50.200;19.508;2024-03-02T03:10:54;21;18;13
34240;PMS7003;20503;50.200;19.508;2024-03-02T03:11:56;21;18;13
34240;PMS7003;20503;50.200;19.508;2024-03-02T03:13:03;22;18;13
34240;PMS7003;20503;50.200;19.508;2024-03-02T03:14:11;24;18;12
34240;PMS7003;20503;50.200;19.508;2024-03-02T03:15:13;27;20;14
34240;PMS7003;20503;50.200;19.508;2024-03-02T03:16:16;32;22;14
34240;PMS7003;20503;50.200;19.508;2024-03-02T03:17:29;27;20;13
34240;PMS7003;20503;50.200;19.508;2024-03-02T03:18:31;21;18;12
34240;PMS7003;20503;50.200;19.508;2024-03-02T03:19:32;26;20;14
34240;PMS7003;20503;50.200;19.508;2024-03-02T03:20:34;26;20;14
34240;PMS7003;20503;50.200;19.508;2024-03-02T03:21:36;27;21;14
34240;PMS7003;20503;50.200;19.508;2024-03-02T03:22:38;26;19;13
34240;PMS7003;20503;50.200;19.508;2024-03-02T03:23:39;25;19;14
34240;PMS7003;20503;50.200;19.508;2024-03-02T03:24:41;25;19;14
34240;PMS7003;20503;50.200;19.508;2024-03-02T03:25:42;25;18;13
34240;PMS7003;20503;50.200;19.508;2024-03-02T03:26:44;25;22;13
34240;PMS7003;20503;50.200;19.508;2024-03-02T03:27:46;27;23;14
34240;PMS7003;20503;50.200;19.508;2024-03-02T03:28:48;27;23;14
34240;PMS7003;20503;50.200;19.508;2024-03-02T03:29:51;27;22;13
34240;PMS7003;20503;50.200;19.508;2024-03-02T03:30:53;28;22;13
34240;PMS7003;20503;50.200;19.508;2024-03-02T03:31:54;28;22;13
34240;PMS7003;20503;50.200;19.508;2024-03-02T03:32:56;28;22;13
34240;PMS7003;20503;50.200;19.508;2024-03-02T03:33:58;27;21;13
34240;PMS7003;20503;50.200;19.508;2024-03-02T03:35:01;25;21;13
34240;PMS7003;20503;50.200;19.508;2024-03-02T03:36:02;30;23;14
34240;PMS7003;20503;50.200;19.508;2024-03-02T03:37:04;29;22;13
34240;PMS7003;20503;50.200;19.508;2024-03-02T03:38:06;30;21;13
34240;PMS7003;20503;50.200;19.508;2024-03-02T03:39:07;30;21;13
34240;PMS7003;20503;50.200;19.508;2024-03-02T03:40:09;25;18;13
34240;PMS7003;20503;50.200;19.508;2024-03-02T03:41:11;25;18;13
34240;PMS7003;20503;50.200;19.508;2024-03-02T03:42:12;27;20;14
34240;PMS7003;20503;50.200;19.508;2024-03-02T03:43:13;25;20;14
34240;PMS7003;20503;50.200;19.508;2024-03-02T03:44:16;25;20;14
34240;PMS7003;20503;50.200;19.508;2024-03-02T03:45:17;26;21;14
34240;PMS7003;20503;50.200;19.508;2024-03-02T03:46:19;29;22;13
34240;PMS7003;20503;50.200;19.508;2024-03-02T03:47:21;29;22;14
34240;PMS7003;20503;50.200;19.508;2024-03-02T03:48:22;29;22;14
34240;PMS7003;20503;50.200;19.508;2024-03-02T03:49:24;25;20;14
34240;PMS7003;20503;50.200;19.508;2024-03-02T03:50:26;25;20;14
34240;PMS7003;20503;50.200;19.508;2024-03-02T03:51:28;27;19;13
34240;PMS7003;20503;50.200;19.508;2024-03-02T03:52:29;26;22;14
34240;PMS7003;20503;50.200;19.508;2024-03-02T03:53:30;26;22;14
34240;PMS7003;20503;50.200;19.508;2024-03-02T03:54:31;27;20;14
34240;PMS7003;20503;50.200;19.508;2024-03-02T03:55:33;27;20;14
34240;PMS7003;20503;50.200;19.508;2024-03-02T03:56:34;26;21;14
34240;PMS7003;20503;50.200;19.508;2024-03-02T03:57:35;24;20;13
34240;PMS7003;20503;50.200;19.508;2024-03-02T03:58:37;24;20;13
34240;PMS7003;20503;50.200;19.508;2024-03-02T03:59:38;27;20;13
34240;PMS7003;20503;50.200;19.508;2024-03-02T04:00:59;24;19;12
34240;PMS7003;20503;50.200;19.508;2024-03-02T04:02:01;30;19;15
34240;PMS7003;20503;50.200;19.508;2024-03-02T04:03:04;25;22;13
34240;PMS7003;20503;50.200;19.508;2024-03-02T04:04:05;26;20;14
34240;PMS7003;20503;50.200;19.508;2024-03-02T04:05:07;26;20;14
34240;PMS7003;20503;50.200;19.508;2024-03-02T04:06:12;24;19;13
34240;PMS7003;20503;50.200;19.508;2024-03-02T04:07:15;23;19;13
34240;PMS7003;20503;50.200;19.508;2024-03-02T04:08:16;23;18;13
34240;PMS7003;20503;50.200;19.508;2024-03-02T04:09:17;25;19;13
34240;PMS7003;20503;50.200;19.508;2024-03-02T04:10:19;25;19;13
34240;PMS7003;20503;50.200;19.508;2024-03-02T04:11:21;25;20;13
34240;PMS7003;20503;50.200;19.508;2024-03-02T04:12:23;25;20;13
34240;PMS7003;20503;50.200;19.508;2024-03-02T04:13:24;25;19;12
34240;PMS7003;20503;50.200;19.508;2024-03-02T04:14:25;24;18;13
34240;PMS7003;20503;50.200;19.508;2024-03-02T04:15:26;26;21;13
34240;PMS7003;20503;50.200;19.508;2024-03-02T04:16:28;30;22;16
34240;PMS7003;20503;50.200;19.508;2024-03-02T04:17:31;31;25;17
34240;PMS7003;20503;50.200;19.508;2024-03-02T04:18:45;27;24;15
34240;PMS7003;20503;50.200;19.508;2024-03-02T04:19:46;30;23;15
34240;PMS7003;20503;50.200;19.508;2024-03-02T04:20:47;30;23;15
34240;PMS7003;20503;50.200;19.508;2024-03-02T04:21:49;36;29;19
34240;PMS7003;20503;50.200;19.508;2024-03-02T04:22:50;33;26;17
34240;PMS7003;20503;50.200;19.508;2024-03-02T04:24:12;24;21;16
34240;PMS7003;20503;50.200;19.508;2024-03-02T04:25:13;24;21;16
34240;PMS7003;20503;50.200;19.508;2024-03-02T04:26:32;29;23;15
34240;PMS7003;20503;50.200;19.508;2024-03-02T04:27:33;32;24;17
34240;PMS7003;20503;50.200;19.508;2024-03-02T04:28:34;32;24;17
34240;PMS7003;20503;50.200;19.508;2024-03-02T04:29:36;29;23;14
34240;PMS7003;20503;50.200;19.508;2024-03-02T04:30:37;29;23;14
34240;PMS7003;20503;50.200;19.508;2024-03-02T04:31:39;29;23;15
34240;PMS7003;20503;50.200;19.508;2024-03-02T04:32:40;29;22;14
34240;PMS7003;20503;50.200;19.508;2024-03-02T04:33:46;23;20;13
34240;PMS7003;20503;50.200;19.508;2024-03-02T04:34:47;25;22;14
34240;PMS7003;20503;50.200;19.508;2024-03-02T04:35:49;25;22;14
34240;PMS7003;20503;50.200;19.508;2024-03-02T04:36:50;25;19;13
34240;PMS7003;20503;50.200;19.508;2024-03-02T04:37:51;25;19;13
34240;PMS7003;20503;50.200;19.508;2024-03-02T04:38:52;27;20;13
34240;PMS7003;20503;50.200;19.508;2024-03-02T04:39:54;24;19;13
34240;PMS7003;20503;50.200;19.508;2024-03-02T04:40:56;24;19;13
34240;PMS7003;20503;50.200;19.508;2024-03-02T04:41:58;24;19;13
34240;PMS7003;20503;50.200;19.508;2024-03-02T04:43:00;24;19;13
34240;PMS7003;20503;50.200;19.508;2024-03-02T04:44:03;24;18;13
34240;PMS7003;20503;50.200;19.508;2024-03-02T04:45:06;26;23;14
34240;PMS7003;20503;50.200;19.508;2024-03-02T04:46:08;26;23;14
34240;PMS7003;20503;50.200;19.508;2024-03-02T04:47:09;27;22;15
34240;PMS7003;20503;50.200;19.508;2024-03-02T04:48:10;27;22;15
34240;PMS7003;20503;50.200;19.508;2024-03-02T04:49:12;31;22;15
34240;PMS7003;20503;50.200;19.508;2024-03-02T04:50:13;25;23;15
34240;PMS7003;20503;50.200;19.508;2024-03-02T04:51:15;28;21;14
34240;PMS7003;20503;50.200;19.508;2024-03-02T04:52:31;27;21;14
34240;PMS7003;20503;50.200;19.508;2024-03-02T04:53:32;30;23;13
34240;PMS7003;20503;50.200;19.508;2024-03-02T04:54:33;28;21;14
34240;PMS7003;20503;50.200;19.508;2024-03-02T04:55:46;28;21;14
34240;PMS7003;20503;50.200;19.508;2024-03-02T04:57:01;29;22;15
34240;PMS7003;20503;50.200;19.508;2024-03-02T04:58:03;29;22;15
34240;PMS7003;20503;50.200;19.508;2024-03-02T04:59:05;34;24;15
34240;PMS7003;20503;50.200;19.508;2024-03-02T05:00:07;27;22;15
34240;PMS7003;20503;50.200;19.508;2024-03-02T05:01:11;25;22;14
34240;PMS7003;20503;50.200;19.508;2024-03-02T05:02:38;31;24;15
34240;PMS7003;20503;50.200;19.508;2024-03-02T05:04:06;24;21;15
34240;PMS7003;20503;50.200;19.508;2024-03-02T05:05:07;24;19;14
34240;PMS7003;20503;50.200;19.508;2024-03-02T05:06:09;31;23;14
34240;PMS7003;20503;50.200;19.508;2024-03-02T05:07:10;31;23;14
34240;PMS7003;20503;50.200;19.508;2024-03-02T05:08:12;27;23;15
34240;PMS7003;20503;50.200;19.508;2024-03-02T05:09:15;28;20;14
34240;PMS7003;20503;50.200;19.508;2024-03-02T05:10:16;28;20;14
34240;PMS7003;20503;50.200;19.508;2024-03-02T05:11:18;26;20;13
34240;PMS7003;20503;50.200;19.508;2024-03-02T05:12:32;26;20;13
34240;PMS7003;20503;50.200;19.508;2024-03-02T05:13:48;26;20;14
34240;PMS7003;20503;50.200;19.508;2024-03-02T05:14:49;23;19;13
34240;PMS7003;20503;50.200;19.508;2024-03-02T05:15:51;22;20;12
34240;PMS7003;20503;50.200;19.508;2024-03-02T05:16:52;25;19;12
34240;PMS7003;20503;50.200;19.508;2024-03-02T05:17:54;21;18;12
34240;PMS7003;20503;50.200;19.508;2024-03-02T05:18:58;21;17;12
34240;PMS7003;20503;50.200;19.508;2024-03-02T05:19:59;24;19;12
34240;PMS7003;20503;50.200;19.508;2024-03-02T05:21:00;22;18;12
34240;PMS7003;20503;50.200;19.508;2024-03-02T05:22:02;23;18;12
34240;PMS7003;20503;50.200;19.508;2024-03-02T05:23:04;23;18;12
34240;PMS7003;20503;50.200;19.508;2024-03-02T05:24:06;23;20;13
34240;PMS7003;20503;50.200;19.508;2024-03-02T05:25:07;23;20;13
34240;PMS7003;20503;50.200;19.508;2024-03-02T05:26:11;23;19;13
34240;PMS7003;20503;50.200;19.508;2024-03-02T05:27:16;26;19;13
34240;PMS7003;20503;50.200;19.508;2024-03-02T05:28:17;28;21;14
34240;PMS7003;20503;50.200;19.508;2024-03-02T05:29:19;26;20;13
34240;PMS7003;20503;50.200;19.508;2024-03-02T05:30:21;26;20;13
34240;PMS7003;20503;50.200;19.508;2024-03-02T05:31:22;22;19;13
34240;PMS7003;20503;50.200;19.508;2024-03-02T05:32:23;22;19;13
34240;PMS7003;20503;50.200;19.508;2024-03-02T05:33:25;25;19;13
34240;PMS7003;20503;50.200;19.508;2024-03-02T05:34:26;25;19;13
34240;PMS7003;20503;50.200;19.508;2024-03-02T05:35:28;27;20;12
34240;PMS7003;20503;50.200;19.508;2024-03-02T05:36:29;25;20;13
34240;PMS7003;20503;50.200;19.508;2024-03-02T05:37:30;31;24;14
34240;PMS7003;20503;50.200;19.508;2024-03-02T05:38:32;31;24;14
34240;PMS7003;20503;50.200;19.508;2024-03-02T05:39:54;30;25;16
34240;PMS7003;20503;50.200;19.508;2024-03-02T05:40:56;30;24;16
34240;PMS7003;20503;50.200;19.508;2024-03-02T05:41:58;30;24;16
34240;PMS7003;20503;50.200;19.508;2024-03-02T05:43:00;36;30;19
34240;PMS7003;20503;50.200;19.508;2024-03-02T05:44:01;38;28;19
34240;PMS7003;20503;50.200;19.508;2024-03-02T05:45:02;37;31;21
34240;PMS7003;20503;50.200;19.508;2024-03-02T05:46:04;37;31;21
34240;PMS7003;20503;50.200;19.508;2024-03-02T05:47:05;37;30;19
34240;PMS7003;20503;50.200;19.508;2024-03-02T05:48:09;38;31;21
34240;PMS7003;20503;50.200;19.508;2024-03-02T05:49:10;38;31;21
34240;PMS7003;20503;50.200;19.508;2024-03-02T05:50:12;29;23;16
34240;PMS7003;20503;50.200;19.508;2024-03-02T05:51:14;29;23;16
34240;PMS7003;20503;50.200;19.508;2024-03-02T05:52:16;34;28;17
34240;PMS7003;20503;50.200;19.508;2024-03-02T05:53:18;34;28;17
34240;PMS7003;20503;50.200;19.508;2024-03-02T05:54:20;27;23;14
34240;PMS7003;20503;50.200;19.508;2024-03-02T05:55:23;24;20;14
34240;PMS7003;20503;50.200;19.508;2024-03-02T05:56:25;29;22;15
34240;PMS7003;20503;50.200;19.508;2024-03-02T05:57:27;29;22;15
34240;PMS7003;20503;50.200;19.508;2024-03-02T05:58:41;29;20;12
34240;PMS7003;20503;50.200;19.508;2024-03-02T05:59:54;29;20;12
34240;PMS7003;20503;50.200;19.508;2024-03-02T06:00:56;28;21;13
34240;PMS7003;20503;50.200;19.508;2024-03-02T06:01:57;24;18;12
34240;PMS7003;20503;50.200;19.508;2024-03-02T06:02:59;24;18;12
34240;PMS7003;20503;50.200;19.508;2024-03-02T06:04:00;34;27;18
34240;PMS7003;20503;50.200;19.508;2024-03-02T06:05:01;34;27;18
34240;PMS7003;20503;50.200;19.508;2024-03-02T06:06:03;29;24;15
34240;PMS7003;20503;50.200;19.508;2024-03-02T06:07:05;29;24;15
34240;PMS7003;20503;50.200;19.508;2024-03-02T06:08:06;31;23;16
34240;PMS7003;20503;50.200;19.508;2024-03-02T06:09:08;32;24;15
34240;PMS7003;20503;50.200;19.508;2024-03-02T06:10:14;35;21;15
34240;PMS7003;20503;50.200;19.508;2024-03-02T06:11:15;32;23;15
34240;PMS7003;20503;50.200;19.508;2024-03-02T06:12:17;32;23;15
34240;PMS7003;20503;50.200;19.508;2024-03-02T06:13:18;29;21;14
34240;PMS7003;20503;50.200;19.508;2024-03-02T06:14:44;22;17;12
34240;PMS7003;20503;50.200;19.508;2024-03-02T06:15:46;29;21;13
34240;PMS7003;20503;50.200;19.508;2024-03-02T06:16:48;29;21;13
34240;PMS7003;20503;50.200;19.508;2024-03-02T06:17:49;24;20;13
34240;PMS7003;20503;50.200;19.508;2024-03-02T06:18:50;24;20;13
34240;PMS7003;20503;50.200;19.508;2024-03-02T06:20:02;29;19;13
34240;PMS7003;20503;50.200;19.508;2024-03-02T06:21:04;29;19;13
34240;PMS7003;20503;50.200;19.508;2024-03-02T06:22:05;24;18;13
34240;PMS7003;20503;50.200;19.508;2024-03-02T06:23:06;24;18;13
34240;PMS7003;20503;50.200;19.508;2024-03-02T06:24:07;25;20;13
34240;PMS7003;20503;50.200;19.508;2024-03-02T06:25:09;27;21;15
34240;PMS7003;20503;50.200;19.508;2024-03-02T06:26:10;28;21;14
34240;PMS7003;20503;50.200;19.508;2024-03-02T06:27:13;28;21;14
34240;PMS7003;20503;50.200;19.508;2024-03-02T06:28:14;34;26;17
34240;PMS7003;20503;50.200;19.508;2024-03-02T06:29:18;28;23;16
34240;PMS7003;20503;50.200;19.508;2024-03-02T06:30:19;29;23;15
34240;PMS7003;20503;50.200;19.508;2024-03-02T06:31:21;29;23;16
34240;PMS7003;20503;50.200;19.508;2024-03-02T06:32:22;29;23;16
34240;PMS7003;20503;50.200;19.508;2024-03-02T06:33:26;26;21;14
34240;PMS7003;20503;50.200;19.508;2024-03-02T06:34:29;26;21;14
34240;PMS7003;20503;50.200;19.508;2024-03-02T06:35:30;27;21;15
34240;PMS7003;20503;50.200;19.508;2024-03-02T06:36:38;27;21;13
34240;PMS7003;20503;50.200;19.508;2024-03-02T06:37:49;28;20;13
34240;PMS7003;20503;50.200;19.508;2024-03-02T06:38:52;28;20;13
34240;PMS7003;20503;50.200;19.508;2024-03-02T06:39:53;25;20;13
34240;PMS7003;20503;50.200;19.508;2024-03-02T06:41:08;28;21;13
34240;PMS7003;20503;50.200;19.508;2024-03-02T06:42:09;24;20;13
34240;PMS7003;20503;50.200;19.508;2024-03-02T06:43:11;27;21;12
34240;PMS7003;20503;50.200;19.508;2024-03-02T06:44:12;27;23;14
34240;PMS7003;20503;50.200;19.508;2024-03-02T06:45:14;22;19;13
34240;PMS7003;20503;50.200;19.508;2024-03-02T06:46:15;26;21;13
34240;PMS7003;20503;50.200;19.508;2024-03-02T06:47:17;26;21;13
34240;PMS7003;20503;50.200;19.508;2024-03-02T06:48:21;26;22;14
34240;PMS7003;20503;50.200;19.508;2024-03-02T06:49:22;79;60;34